Time;durP1;ratioP1;P1;durP2;ratioP2;P2;SDS_P1;SDS_P2;PMS_P1;PMS_P2;Temp;Humidity;BMP_temperature;BMP_pressure;BME280_temperature;BME280_humidity;BME280_pressure;Samples;Min_cycle;Max_cycle;Signal;HPM_P1;HPM_P2
2022/10/05 00:00:12;;;;;;;8.90;5.88;;;;;;;13.87;71.00;100563.69;5054986;28;20056;-56
2022/10/05 00:02:41;;;;;;;6.05;5.20;;;;;;;13.89;70.04;100563.38;5054922;28;20064;-57
2022/10/05 00:05:19;;;;;;;8.47;5.53;;;;;;;13.86;70.94;100550.88;5053856;28;20398;-55
2022/10/05 00:07:47;;;;;;;5.87;5.10;;;;;;;13.83;70.71;100556.31;5054842;28;20053;-56
2022/10/05 00:10:17;;;;;;;6.72;4.97;;;;;;;13.79;69.74;100550.53;5054770;28;20072;-56
2022/10/05 00:12:45;;;;;;;5.72;4.53;;;;;;;13.75;70.08;100544.81;5054337;28;20057;-55
2022/10/05 00:15:15;;;;;;;7.03;5.22;;;;;;;13.72;70.14;100545.47;5053896;28;20060;-55
2022/10/05 00:17:44;;;;;;;7.07;5.28;;;;;;;13.67;69.50;100539.22;5053155;28;20068;-56
2022/10/05 00:20:18;;;;;;;6.53;5.30;;;;;;;13.62;70.47;100534.63;5054616;28;20512;-56
2022/10/05 00:22:46;;;;;;;7.85;5.45;;;;;;;13.56;70.11;100533.16;5054584;28;21001;-55
2022/10/05 00:25:16;;;;;;;7.15;5.72;;;;;;;13.51;71.12;100538.94;5053808;28;20057;-56
2022/10/05 00:27:46;;;;;;;7.10;5.15;;;;;;;13.51;71.46;100534.16;5054439;28;20059;-55
2022/10/05 00:30:16;;;;;;;8.10;6.10;;;;;;;13.48;70.83;100537.63;5054531;28;20493;-56
2022/10/05 00:32:45;;;;;;;6.85;5.55;;;;;;;13.48;71.41;100534.00;5054385;28;20076;-57
2022/10/05 00:35:14;;;;;;;8.10;5.78;;;;;;;13.44;71.39;100542.25;5053108;28;20061;-56
2022/10/05 00:37:42;;;;;;;7.93;4.68;;;;;;;13.43;71.91;100536.97;5053997;28;20057;-57
2022/10/05 00:40:20;;;;;;;7.60;5.35;;;;;;;13.45;71.57;100534.66;5054486;28;20509;-56
2022/10/05 00:42:55;;;;;;;6.43;5.47;;;;;;;13.44;71.88;100535.81;5054275;28;20413;-56
2022/10/05 00:45:28;;;;;;;8.77;5.75;;;;;;;13.42;72.23;100529.72;5034032;28;20061;-57
2022/10/05 00:48:05;;;;;;;5.80;5.10;;;;;;;13.45;71.72;100534.66;5033961;28;20068;-57
2022/10/05 00:50:54;;;;;;;9.05;5.43;;;;;;;13.47;72.69;100529.56;5034199;28;20057;-56
2022/10/05 00:53:33;;;;;;;8.50;5.20;;;;;;;13.47;71.98;100529.56;5037954;28;20076;-56
2022/10/05 00:56:07;;;;;;;9.05;5.80;;;;;;;13.48;72.43;100522.78;5054036;28;20413;-57
2022/10/05 00:58:49;;;;;;;5.63;5.03;;;;;;;13.51;71.49;100531.34;5054233;28;20057;-56
2022/10/05 01:01:25;;;;;;;8.73;5.55;;;;;;;13.54;71.38;100532.66;5054108;28;20060;-55
2022/10/05 01:04:03;;;;;;;7.07;5.50;;;;;;;13.57;72.05;100534.81;5053087;28;20049;-57
2022/10/05 01:06:43;;;;;;;7.30;5.28;;;;;;;13.59;72.62;100540.91;5053626;28;20058;-56
2022/10/05 01:09:22;;;;;;;7.55;5.25;;;;;;;13.62;71.97;100539.41;5053981;28;20083;-56
2022/10/05 01:11:54;;;;;;;8.20;5.20;;;;;;;13.61;72.24;100538.59;5053291;28;20156;-56
2022/10/05 01:14:27;;;;;;;8.32;5.65;;;;;;;13.60;72.29;100534.13;5052483;28;20068;-56
2022/10/05 01:17:01;;;;;;;7.63;5.45;;;;;;;13.60;71.14;100529.34;5053560;28;20053;-56
2022/10/05 01:19:59;;;;;;;10.35;5.93;;;;;;;13.58;71.68;100522.44;5053783;28;20409;-56
2022/10/05 01:22:41;;;;;;;8.13;5.72;;;;;;;13.54;71.67;100524.25;5053171;28;20065;-57
2022/10/05 01:25:21;;;;;;;7.35;5.97;;;;;;;13.55;70.94;100526.75;5052226;28;20049;-56
2022/10/05 01:27:57;;;;;;;9.57;5.38;;;;;;;13.54;71.83;100524.25;5052821;28;20064;-56
2022/10/05 01:30:25;;;;;;;7.90;6.07;;;;;;;13.52;71.51;100520.97;5053173;28;20056;-56
2022/10/05 01:33:00;;;;;;;9.35;5.80;;;;;;;13.48;71.82;100518.03;5052062;28;20057;-56
2022/10/05 01:35:43;;;;;;;9.88;5.70;;;;;;;13.47;72.19;100512.78;5053408;28;20060;-56
2022/10/05 01:38:24;;;;;;;8.15;5.70;;;;;;;13.44;72.47;100508.66;5053012;28;20067;-55
2022/10/05 01:40:58;;;;;;;7.10;5.20;;;;;;;13.38;72.18;100505.22;5053146;28;20083;-57
2022/10/05 01:43:33;;;;;;;8.50;5.95;;;;;;;13.39;71.35;100508.81;5052212;28;20057;-56
2022/10/05 01:46:12;;;;;;;9.38;6.10;;;;;;;13.30;72.48;100508.84;5052979;28;20057;-56
2022/10/05 01:48:57;;;;;;;8.57;6.65;;;;;;;13.30;73.26;100506.06;5051757;28;20056;-56
2022/10/05 01:51:32;;;;;;;7.25;5.82;;;;;;;13.32;72.38;100500.94;5052998;28;20481;-56
2022/10/05 01:54:07;;;;;;;8.15;6.10;;;;;;;13.33;73.58;100490.56;5051923;28;20052;-56
2022/10/05 01:56:43;;;;;;;7.45;5.95;;;;;;;13.32;72.49;100491.75;5052902;28;20053;-56
2022/10/05 01:59:23;;;;;;;8.68;6.20;;;;;;;13.28;72.33;100491.53;5052465;28;20059;-55
2022/10/05 02:01:58;;;;;;;8.95;5.93;;;;;;;13.27;73.09;100494.66;5052022;28;20064;-56
2022/10/05 02:04:31;;;;;;;8.60;6.18;;;;;;;13.24;73.70;100490.56;5051758;28;20128;-56
2022/10/05 02:07:02;;;;;;;7.20;5.40;;;;;;;13.24;73.36;100489.75;5052093;28;20053;-56
2022/10/05 02:09:35;;;;;;;8.27;5.95;;;;;;;13.21;73.21;100485.66;5052345;28;20068;-55
2022/10/05 02:12:05;;;;;;;6.88;5.50;;;;;;;13.20;72.64;100470.81;5052578;28;20429;-56
2022/10/05 02:14:40;;;;;;;8.23;6.15;;;;;;;13.24;72.58;100473.78;5051544;28;20061;-55
2022/10/05 02:17:13;;;;;;;8.88;5.75;;;;;;;13.26;72.96;100462.28;5052077;28;20057;-55
2022/10/05 02:19:43;;;;;;;10.82;6.00;;;;;;;13.23;73.97;100455.38;5052482;28;20061;-56
2022/10/05 02:22:16;;;;;;;8.15;6.10;;;;;;;13.23;73.19;100458.16;5051860;28;20404;-56
2022/10/05 02:24:48;;;;;;;7.10;5.47;;;;;;;13.29;73.50;100453.22;5051061;28;20060;-62
2022/10/05 02:27:21;;;;;;;8.20;6.03;;;;;;;13.38;73.69;100462.44;5052446;28;20056;-62
2022/10/05 02:29:53;;;;;;;7.85;5.97;;;;;;;13.43;73.29;100458.63;5051854;28;20417;-62
2022/10/05 02:32:24;;;;;;;9.13;5.30;;;;;;;13.42;73.16;100451.38;5051514;28;20064;-62
2022/10/05 02:34:52;;;;;;;7.28;5.50;;;;;;;13.44;72.79;100455.50;5051990;28;20064;-62
2022/10/05 02:37:33;;;;;;;8.00;6.05;;;;;;;13.49;72.02;100460.91;5052298;28;20394;-64
2022/10/05 02:40:11;;;;;;;7.00;5.55;;;;;;;13.51;72.58;100460.59;5051129;28;20410;-62
2022/10/05 02:42:48;;;;;;;7.55;5.70;;;;;;;13.47;71.74;100468.00;5050545;28;20442;-62
2022/10/05 02:45:27;;;;;;;9.38;5.60;;;;;;;13.48;72.06;100461.25;5051399;28;20103;-62
2022/10/05 02:48:04;;;;;;;8.32;5.15;;;;;;;13.48;72.83;100469.63;5051907;28;20136;-62
2022/10/05 02:50:38;;;;;;;7.18;5.35;;;;;;;13.48;71.99;100466.84;5052198;28;20413;-62
2022/10/05 02:53:22;;;;;;;8.80;5.63;;;;;;;13.51;71.66;100469.78;5051180;28;20056;-62
2022/10/05 02:55:59;;;;;;;9.68;6.15;;;;;;;13.54;72.34;100471.09;5051942;28;20057;-60
2022/10/05 02:58:30;;;;;;;6.40;4.97;;;;;;;13.57;71.81;100465.66;5052286;28;20061;-62
2022/10/05 03:01:11;;;;;;;8.63;6.00;;;;;;;13.60;71.65;100472.56;5051023;28;20068;-62
2022/10/05 03:03:43;;;;;;;7.05;5.60;;;;;;;13.62;71.85;100463.84;5052147;28;20056;-62
2022/10/05 03:06:15;;;;;;;8.15;5.65;;;;;;;13.68;72.25;100462.50;5051020;28;20064;-62
2022/10/05 03:08:51;;;;;;;9.38;5.60;;;;;;;13.71;71.57;100451.47;5051855;28;20465;-62
2022/10/05 03:11:25;;;;;;;7.40;5.88;;;;;;;13.76;71.76;100467.22;5051382;28;20420;-62
2022/10/05 03:13:57;;;;;;;9.20;5.90;;;;;;;13.75;71.98;100455.22;5050891;28;20405;-62
2022/10/05 03:16:38;;;;;;;8.57;5.80;;;;;;;13.79;71.67;100456.16;5051698;28;20489;-62
2022/10/05 03:19:21;;;;;;;7.78;6.18;;;;;;;13.78;71.90;100443.34;5051864;28;20415;-62
2022/10/05 03:21:59;;;;;;;7.70;5.70;;;;;;;13.81;72.43;100448.25;5050809;28;20061;-62
2022/10/05 03:24:43;;;;;;;8.52;5.78;;;;;;;13.84;71.50;100443.13;5049873;28;20505;-62
2022/10/05 03:27:22;;;;;;;8.63;5.78;;;;;;;13.86;72.25;100435.22;5049954;28;20060;-62
2022/10/05 03:29:57;;;;;;;7.83;5.83;;;;;;;13.86;71.03;100438.03;5051516;28;20064;-62
2022/10/05 03:32:34;;;;;;;9.30;6.00;;;;;;;13.78;71.47;100422.94;5051460;28;20129;-64
2022/10/05 03:35:06;;;;;;;7.65;6.30;;;;;;;13.78;71.73;100431.31;5051265;28;20063;-62
2022/10/05 03:37:42;;;;;;;7.13;5.70;;;;;;;13.87;71.55;100422.88;5051592;28;20060;-62
2022/10/05 03:40:22;;;;;;;7.50;5.72;;;;;;;13.89;71.86;100420.56;5051402;28;20068;-62
2022/10/05 03:43:01;;;;;;;7.90;5.50;;;;;;;13.93;71.34;100413.94;5050824;28;20063;-62
2022/10/05 03:45:33;;;;;;;8.98;6.05;;;;;;;13.89;72.25;100412.97;5051695;28;20068;-62
2022/10/05 03:48:08;;;;;;;8.35;6.30;;;;;;;13.96;72.61;100409.63;5051239;28;20053;-62
2022/10/05 03:50:44;;;;;;;9.50;6.15;;;;;;;13.91;72.06;100405.06;5051346;28;20417;-62
2022/10/05 03:53:18;;;;;;;8.88;6.00;;;;;;;13.95;72.43;100408.00;5055073;28;20068;-62
2022/10/05 03:55:49;;;;;;;8.70;6.15;;;;;;;13.94;71.49;100407.19;5054410;28;20409;-62
2022/10/05 03:58:22;;;;;;;8.45;5.70;;;;;;;13.94;72.48;100406.34;5054993;28;20053;-62
2022/10/05 04:00:57;;;;;;;8.10;6.07;;;;;;;14.03;71.99;100409.94;5054855;28;20053;-62
2022/10/05 04:03:33;;;;;;;8.10;6.07;;;;;;;14.05;71.77;100402.00;5055183;28;20057;-62
2022/10/05 04:06:08;;;;;;;7.50;6.05;;;;;;;14.08;71.46;100401.31;5054411;28;20061;-62
2022/10/05 04:08:43;;;;;;;7.85;5.82;;;;;;;14.05;71.57;100395.56;5055145;28;20473;-63
2022/10/05 04:11:15;;;;;;;7.65;5.97;;;;;;;14.06;71.66;100389.63;5053318;28;20124;-62
2022/10/05 04:13:47;;;;;;;8.15;5.90;;;;;;;13.97;72.50;100389.69;5054599;28;20433;-61
2022/10/05 04:16:20;;;;;;;8.05;5.95;;;;;;;13.91;71.59;100384.66;5053463;28;20465;-62
2022/10/05 04:18:55;;;;;;;8.60;6.22;;;;;;;13.90;71.97;100395.03;5054667;28;20057;-62
2022/10/05 04:21:28;;;;;;;7.88;6.13;;;;;;;13.92;71.38;100387.13;5054684;28;20068;-62
2022/10/05 04:23:59;;;;;;;9.32;6.85;;;;;;;13.71;73.27;100392.66;5053807;28;20057;-62
2022/10/05 04:26:35;;;;;;;9.05;5.65;;;;;;;13.78;72.18;100398.53;5054422;28;20064;-62
2022/10/05 04:29:13;;;;;;;8.88;6.68;;;;;;;13.77;72.08;100382.94;5054453;28;20060;-62
2022/10/05 04:31:55;;;;;;;8.38;6.60;;;;;;;13.71;72.70;100387.06;5053283;28;20068;-62
2022/10/05 04:34:43;;;;;;;7.40;6.55;;;;;;;13.68;72.82;100384.13;5054133;28;20425;-62
2022/10/05 04:37:19;;;;;;;9.80;6.70;;;;;;;13.61;72.91;100384.66;5054149;28;20052;-62
2022/10/05 04:39:55;;;;;;;10.30;6.13;;;;;;;13.61;73.06;100370.66;5053285;28;20405;-62
2022/10/05 04:42:31;;;;;;;10.77;7.30;;;;;;;13.48;73.91;100371.69;5054026;28;20084;-62
2022/10/05 04:45:08;;;;;;;7.93;6.07;;;;;;;13.53;72.64;100377.13;5054215;28;20061;-62
2022/10/05 04:48:11;;;;;;;10.40;6.65;;;;;;;13.52;73.32;100372.66;5053959;28;20049;-62
2022/10/05 04:50:49;;;;;;;8.60;6.53;;;;;;;13.42;73.65;100375.84;5054189;28;20528;-62
2022/10/05 04:53:25;;;;;;;8.52;6.97;;;;;;;13.28;74.69;100385.25;5053786;28;20413;-62
2022/10/05 04:55:58;;;;;;;10.43;6.85;;;;;;;13.31;74.54;100379.03;5053681;28;20071;-62
2022/10/05 04:58:39;;;;;;;8.10;6.07;;;;;;;13.25;74.74;100379.50;5054050;28;20118;-62
2022/10/05 05:01:19;;;;;;;10.77;7.45;;;;;;;13.24;74.21;100384.28;5053927;28;20385;-62
2022/10/05 05:04:13;;;;;;;8.77;7.35;;;;;;;13.25;74.53;100385.09;5053560;28;20057;-62
2022/10/05 05:06:49;;;;;;;11.07;7.55;;;;;;;13.21;75.61;100384.97;5033547;28;20054;-62
2022/10/05 05:10:04;;;;;;;9.98;7.65;;;;;;;13.18;74.38;100394.81;5027313;28;20060;-62
2022/10/05 05:12:42;;;;;;;10.80;7.47;;;;;;;13.20;74.48;100397.28;4988448;28;20069;-62
2022/10/05 05:15:21;;;;;;;10.80;7.40;;;;;;;13.28;74.54;100395.63;4991125;28;20058;-62
2022/10/05 05:18:02;;;;;;;10.00;6.68;;;;;;;13.22;74.16;100399.75;5016326;28;20486;-62
2022/10/05 05:20:45;;;;;;;9.80;7.60;;;;;;;13.27;75.00;100392.00;5032306;28;20053;-62
2022/10/05 05:23:23;;;;;;;9.57;7.63;;;;;;;13.20;75.01;100391.69;5033249;28;20057;-62
2022/10/05 05:26:01;;;;;;;9.80;6.53;;;;;;;13.26;75.50;100392.34;5031504;28;20410;-62
2022/10/05 05:28:39;;;;;;;8.88;6.78;;;;;;;13.30;75.23;100399.75;5029086;28;20069;-62
2022/10/05 05:31:12;;;;;;;11.15;7.85;;;;;;;13.29;75.39;100391.69;5031155;28;20085;-62
2022/10/05 05:33:55;;;;;;;9.25;7.40;;;;;;;13.24;75.12;100401.06;5032210;28;20053;-62
2022/10/05 05:36:37;;;;;;;10.27;7.57;;;;;;;13.34;74.16;100408.31;5028541;28;20077;-62
2022/10/05 05:39:23;;;;;;;12.13;8.05;;;;;;;13.36;74.99;100387.22;5030358;28;20060;-62
2022/10/05 05:41:59;;;;;;;9.40;6.85;;;;;;;13.38;74.54;100384.91;5030461;28;20414;-61
2022/10/05 05:44:28;;;;;;;12.30;7.57;;;;;;;13.48;73.48;100391.28;5029030;28;20053;-62
2022/10/05 05:47:00;;;;;;;10.75;7.50;;;;;;;13.44;73.42;100381.91;5030518;28;20445;-61
2022/10/05 05:49:49;;;;;;;11.68;7.75;;;;;;;13.41;74.25;100386.22;5029165;28;20057;-62
2022/10/05 05:52:25;;;;;;;11.57;7.18;;;;;;;13.51;73.58;100404.63;5030544;28;20053;-62
2022/10/05 05:55:00;;;;;;;9.43;7.45;;;;;;;13.50;73.89;100394.56;5031568;28;20387;-62
2022/10/05 05:57:32;;;;;;;8.63;6.95;;;;;;;13.54;74.47;100384.34;5030921;28;20060;-62
2022/10/05 06:00:05;;;;;;;10.43;7.22;;;;;;;13.36;73.69;100392.81;5028725;28;20053;-57
2022/10/05 06:02:40;;;;;;;9.52;7.05;;;;;;;13.44;73.64;100401.50;5032070;28;20061;-62
2022/10/05 06:05:30;;;;;;;9.48;6.80;;;;;;;13.47;73.40;100392.44;5041514;28;20049;-62
2022/10/05 06:07:58;;;;;;;;;;;;;;;13.55;73.89;100389.59;5053174;28;20053;-62
2022/10/05 06:10:33;;;;;;;9.23;6.40;;;;;;;13.68;72.87;100390.53;5052183;28;19984;-62
2022/10/05 06:13:08;;;;;;;10.50;6.88;;;;;;;13.80;72.03;100395.41;5036577;28;20064;-57
2022/10/05 06:15:40;;;;;;;8.02;6.38;;;;;;;13.89;71.75;100389.75;5050561;28;20068;-62
2022/10/05 06:18:12;;;;;;;8.75;6.18;;;;;;;13.92;71.52;100389.06;5052045;28;20049;-62
2022/10/05 06:20:43;;;;;;;9.10;7.00;;;;;;;14.00;71.82;100391.81;5047963;28;20067;-62
2022/10/05 06:23:16;;;;;;;7.13;5.97;;;;;;;14.01;71.62;100401.06;5048820;28;20056;-62
2022/10/05 06:25:58;;;;;;;8.52;5.90;;;;;;;14.07;70.83;100394.09;5050637;28;20398;-61
2022/10/05 06:28:26;;;;;;;8.15;6.90;;;;;;;14.32;69.89;100395.06;5040840;28;20060;-62
2022/10/05 06:31:03;;;;;;;7.97;5.63;;;;;;;14.16;70.08;100408.84;5050290;28;20053;-60
2022/10/05 06:33:45;;;;;;;7.65;5.95;;;;;;;14.23;70.19;100397.09;5041556;28;20057;-62
2022/10/05 06:36:35;;;;;;;8.80;5.88;;;;;;;14.43;69.54;100392.66;5049171;28;20061;-62
2022/10/05 06:39:31;;;;;;;8.32;6.13;;;;;;;14.19;72.99;100402.59;5048852;28;20528;-42
2022/10/05 06:42:14;;;;;;;7.35;5.75;;;;;;;14.54;70.42;100393.06;5049809;28;20504;-61
2022/10/05 06:44:52;;;;;;;6.10;5.28;;;;;;;14.66;69.88;100398.75;5051008;28;20520;-62
2022/10/05 06:47:32;;;;;;;7.00;5.50;;;;;;;14.57;69.00;100400.81;5034148;28;20065;-61
2022/10/05 06:50:13;;;;;;;7.78;5.30;;;;;;;14.69;69.91;100391.63;5044773;28;20124;-59
2022/10/05 06:52:53;;;;;;;6.32;5.10;;;;;;;14.51;68.74;100397.38;5044171;28;20064;-62
2022/10/05 06:55:30;;;;;;;7.80;5.20;;;;;;;14.71;69.61;100397.72;5049838;28;20053;-62
2022/10/05 06:58:16;;;;;;;7.32;5.63;;;;;;;14.71;69.39;100403.34;5049064;28;20053;-61
2022/10/05 07:00:50;;;;;;;7.10;4.95;;;;;;;14.85;69.68;100401.06;5043785;28;20505;-61
2022/10/05 07:03:27;;;;;;;7.05;5.30;;;;;;;14.94;68.28;100398.97;5048759;28;20052;-62
2022/10/05 07:06:06;;;;;;;6.57;4.70;;;;;;;15.16;68.26;100389.34;5048920;28;20049;-62
2022/10/05 07:08:52;;;;;;;5.88;4.72;;;;;;;15.29;67.42;100403.41;5049475;28;20068;-62
2022/10/05 07:11:33;;;;;;;5.75;4.65;;;;;;;15.35;67.20;100396.34;5047779;28;20052;-61
2022/10/05 07:14:13;;;;;;;5.65;4.45;;;;;;;15.54;67.22;100387.38;5048467;28;20067;-61
2022/10/05 07:16:56;;;;;;;6.07;4.40;;;;;;;15.75;65.98;100387.31;5048254;28;20509;-60
2022/10/05 07:19:36;;;;;;;5.40;4.20;;;;;;;15.86;65.91;100398.91;5044025;28;20064;-62
2022/10/05 07:22:44;;;;;;;5.68;4.70;;;;;;;15.87;64.86;100389.28;5042643;28;20053;-62
2022/10/05 07:25:16;;;;;;;5.00;4.03;;;;;;;15.82;65.27;100387.53;5023378;28;20080;-62
2022/10/05 07:27:50;;;;;;;5.85;4.13;;;;;;;15.84;65.49;100385.19;5050087;28;20049;-62
2022/10/05 07:30:19;;;;;;;6.22;4.88;;;;;;;15.88;65.89;100388.13;5046206;28;20410;-62
2022/10/05 07:32:59;;;;;;;7.15;3.88;;;;;;;16.09;64.94;100385.16;5051388;28;20060;-62
2022/10/05 07:38:31;;;;;;;6.45;4.18;;;;;;;16.09;64.38;100393.59;5055223;28;20063;-62
2022/10/05 07:41:04;;;;;;;6.07;4.75;;;;;;;16.19;64.34;100388.31;5053825;28;20053;-62
2022/10/05 07:43:41;;;;;;;5.60;4.22;;;;;;;16.31;63.81;100392.25;5053399;28;20052;-62
2022/10/05 07:46:17;;;;;;;5.93;4.53;;;;;;;16.27;63.74;100386.50;5047791;28;20068;-61
2022/10/05 07:48:55;;;;;;;6.63;4.40;;;;;;;16.41;64.00;100397.38;5049022;28;20060;-62
2022/10/05 07:51:33;;;;;;;6.45;4.25;;;;;;;16.46;63.28;100399.13;5051651;28;20053;-62
2022/10/05 07:54:10;;;;;;;5.18;4.07;;;;;;;16.35;63.50;100407.22;5050820;28;20060;-62
2022/10/05 07:56:41;;;;;;;6.80;4.20;;;;;;;16.47;63.50;100395.16;5051511;28;20762;-62
2022/10/05 07:59:17;;;;;;;4.95;4.22;;;;;;;16.44;63.80;100402.28;5052462;28;20053;-61
2022/10/05 08:01:50;;;;;;;4.95;4.03;;;;;;;16.46;63.88;100407.56;5052770;28;20056;-59
2022/10/05 08:04:21;;;;;;;5.57;4.20;;;;;;;16.49;63.82;100421.72;5050817;28;20045;-62
2022/10/05 08:06:51;;;;;;;4.32;3.90;;;;;;;16.39;64.22;100422.22;5052225;28;20048;-62
2022/10/05 08:09:44;;;;;;;5.43;4.00;;;;;;;16.42;64.06;100408.28;5052388;28;20170;-62
2022/10/05 08:12:23;;;;;;;5.32;3.83;;;;;;;16.60;62.82;100414.41;5050628;28;20065;-61
2022/10/05 08:14:55;;;;;;;4.67;4.00;;;;;;;16.55;63.39;100422.31;5049160;28;20060;-61
2022/10/05 08:17:37;;;;;;;6.43;4.00;;;;;;;16.60;63.07;100408.78;5049575;28;20843;-63
2022/10/05 08:20:19;;;;;;;4.95;4.32;;;;;;;16.72;62.90;100424.00;5049469;28;20053;-60
2022/10/05 08:22:52;;;;;;;4.90;3.67;;;;;;;16.69;62.96;100411.44;5045429;28;20060;-61
2022/10/05 08:25:24;;;;;;;5.85;4.03;;;;;;;16.87;62.67;100416.81;5049848;28;20067;-59
2022/10/05 08:27:56;;;;;;;7.25;4.43;;;;;;;16.79;62.24;100416.56;5050484;28;20068;-61
2022/10/05 08:30:24;;;;;;;4.75;4.03;;;;;;;16.81;62.60;100422.69;5050990;28;20045;-62
2022/10/05 08:33:02;;;;;;;4.57;3.78;;;;;;;16.89;62.56;100429.34;5051230;28;20056;-61
2022/10/05 08:35:36;;;;;;;4.80;4.00;;;;;;;16.79;62.54;100427.81;5049758;28;20425;-61
2022/10/05 08:38:12;;;;;;;5.70;3.90;;;;;;;16.81;62.56;100427.50;5048549;28;20056;-60
2022/10/05 08:41:11;;;;;;;4.82;3.92;;;;;;;16.83;62.50;100427.97;5050039;28;20049;-61
2022/10/05 08:44:01;;;;;;;5.55;4.10;;;;;;;16.82;61.78;100429.16;5033084;28;20064;-61
2022/10/05 08:46:44;;;;;;;4.50;3.72;;;;;;;16.62;62.83;100436.56;5048315;28;20061;-60
2022/10/05 08:49:50;;;;;;;6.53;3.80;;;;;;;16.48;63.15;100433.31;5047037;28;20052;-61
2022/10/05 08:52:27;;;;;;;6.00;3.75;;;;;;;16.76;62.75;100433.38;5048531;28;20127;-58
2022/10/05 08:55:28;;;;;;;7.47;4.10;;;;;;;16.75;62.73;100429.72;5044627;28;20052;-60
2022/10/05 08:58:26;;;;;;;5.35;3.88;;;;;;;16.89;62.01;100426.53;5052246;28;20060;-62
2022/10/05 09:01:01;;;;;;;4.15;3.30;;;;;;;17.10;61.43;100414.25;5051112;28;20417;-61
2022/10/05 09:03:58;;;;;;;4.57;3.60;;;;;;;17.22;61.03;100423.44;5050962;28;20063;-61
2022/10/05 09:07:08;;;;;;;5.07;3.60;;;;;;;17.32;61.01;100412.81;5046118;28;20053;-61
2022/10/05 09:10:07;;;;;;;4.57;3.55;;;;;;;17.54;60.38;100409.38;5009584;28;20061;-62
2022/10/05 09:13:19;;;;;;;4.32;3.53;;;;;;;17.67;59.38;100407.28;5006200;28;20050;-61
2022/10/05 09:16:09;;;;;;;5.82;3.40;;;;;;;17.79;58.89;100410.00;5027198;28;20064;-60
2022/10/05 09:18:54;;;;;;;4.80;4.00;;;;;;;17.89;59.13;100413.47;5043071;28;20048;-61
2022/10/05 09:21:40;;;;;;;5.05;3.47;;;;;;;18.00;58.74;100411.75;5049253;28;20061;-60
2022/10/05 09:24:23;;;;;;;4.90;3.40;;;;;;;18.04;58.45;100401.38;5050792;28;20064;-57
2022/10/05 09:27:02;;;;;;;4.57;3.40;;;;;;;18.23;58.33;100406.22;5047663;28;20140;-61
2022/10/05 09:30:09;;;;;;;3.85;3.35;;;;;;;18.38;57.05;100407.34;5047413;28;20049;-61
2022/10/05 09:33:15;;;;;;;4.25;2.88;;;;;;;18.59;56.88;100399.34;5003312;28;20057;-61
2022/10/05 09:36:24;;;;;;;5.45;3.40;;;;;;;18.90;55.87;100402.41;5042879;28;20056;-61
2022/10/05 09:39:20;;;;;;;5.28;3.20;;;;;;;18.86;55.23;100396.72;5050524;28;20064;-61
2022/10/05 09:42:17;;;;;;;3.88;2.92;;;;;;;19.73;53.73;100382.16;5043786;28;20045;-61
2022/10/05 09:45:34;;;;;;;3.60;2.90;;;;;;;20.23;51.86;100386.53;5049949;28;20071;-61
2022/10/05 09:48:35;;;;;;;6.05;2.72;;;;;;;20.78;50.65;100382.41;5050453;28;20478;-61
2022/10/05 09:51:47;;;;;;;4.30;2.85;;;;;;;21.38;48.75;100379.41;5049345;28;20060;-61
2022/10/05 09:54:46;;;;;;;3.35;2.50;;;;;;;21.55;48.19;100372.31;4987470;28;20062;-61
2022/10/05 09:57:48;;;;;;;3.17;2.40;;;;;;;21.58;47.97;100377.19;5045803;28;20444;-61
2022/10/05 10:00:22;;;;;;;3.80;2.35;;;;;;;21.26;48.74;100372.00;5048660;28;20049;-61
2022/10/05 10:03:46;;;;;;;2.92;2.53;;;;;;;21.14;48.91;100368.66;5046462;28;20059;-60
2022/10/05 10:06:33;;;;;;;4.35;2.63;;;;;;;20.40;50.38;100373.03;5047576;28;20394;-61
2022/10/05 10:09:20;;;;;;;2.97;2.15;;;;;;;20.27;51.83;100369.63;5049224;28;20064;-61
2022/10/05 10:12:08;;;;;;;3.35;2.40;;;;;;;20.43;51.03;100367.41;5046654;28;20064;-60
2022/10/05 10:15:11;;;;;;;3.83;2.33;;;;;;;20.48;50.64;100369.91;5045445;28;20060;-61
2022/10/05 10:18:11;;;;;;;2.97;2.65;;;;;;;20.05;51.79;100357.19;5047896;28;20068;-60
2022/10/05 10:20:57;;;;;;;3.33;2.67;;;;;;;19.52;52.57;100379.75;5043495;28;20049;-61
2022/10/05 10:23:50;;;;;;;3.55;2.50;;;;;;;19.20;53.26;100368.72;5049421;28;20064;-62
2022/10/05 10:26:36;;;;;;;2.85;2.20;;;;;;;19.16;53.89;100373.47;5046151;28;20064;-61
2022/10/05 10:29:33;;;;;;;5.95;2.20;;;;;;;19.51;53.98;100359.16;5048456;28;20064;-60
2022/10/05 10:32:39;;;;;;;2.92;2.08;;;;;;;19.67;53.32;100370.31;5046047;28;20057;-60
2022/10/05 10:35:21;;;;;;;4.45;2.20;;;;;;;19.56;52.30;100369.31;5048886;28;20056;-61
2022/10/05 10:38:21;;;;;;;3.33;2.30;;;;;;;19.52;53.27;100362.78;5050128;28;20075;-60
2022/10/05 10:41:13;;;;;;;2.75;1.98;;;;;;;19.34;53.13;100373.78;5041657;28;20053;-60
2022/10/05 10:44:15;;;;;;;3.80;2.28;;;;;;;19.16;53.48;100374.28;5025395;28;20059;-61
2022/10/05 10:46:56;;;;;;;4.45;2.40;;;;;;;19.09;54.02;100373.31;5045740;28;20056;-60
2022/10/05 10:49:47;;;;;;;3.47;2.38;;;;;;;19.27;53.23;100371.66;5042983;28;20556;-60
2022/10/05 10:52:31;;;;;;;3.13;2.45;;;;;;;19.12;54.54;100372.59;5041630;28;20057;-61
2022/10/05 10:55:27;;;;;;;4.95;2.58;;;;;;;19.28;52.71;100376.13;5046317;28;20107;-60
2022/10/05 10:58:32;;;;;;;3.63;2.20;;;;;;;19.75;52.17;100366.44;5048344;28;20398;-61
2022/10/05 11:01:11;;;;;;;3.72;2.58;;;;;;;20.11;50.93;100366.97;4949547;28;21269;-60
2022/10/05 11:04:14;;;;;;;2.40;2.00;;;;;;;20.34;50.01;100357.59;5053363;28;20053;-61
2022/10/05 11:07:20;;;;;;;2.60;2.22;;;;;;;20.06;50.42;100348.31;5051312;28;20061;-60
2022/10/05 11:10:14;;;;;;;3.75;2.00;;;;;;;20.41;49.99;100346.34;5048467;28;20057;-60
2022/10/05 11:13:24;;;;;;;2.28;1.80;;;;;;;21.04;48.42;100356.84;5051766;28;20053;-60
2022/10/05 11:16:16;;;;;;;2.75;1.67;;;;;;;22.11;47.07;100339.06;5010013;28;20057;-59
2022/10/05 11:19:15;;;;;;;2.42;2.08;;;;;;;24.00;42.45;100337.03;5008214;28;20054;-60
2022/10/05 11:22:00;;;;;;;3.08;2.08;;;;;;;25.86;38.89;100329.44;5041709;28;20052;-61
2022/10/05 11:25:10;;;;;;;2.78;1.67;;;;;;;25.76;38.08;100342.56;5051147;28;20056;-61
2022/10/05 11:27:50;;;;;;;3.03;1.80;;;;;;;24.66;39.63;100330.75;5041079;28;20053;-61
2022/10/05 11:30:46;;;;;;;3.00;2.22;;;;;;;24.43;39.44;100328.38;5054417;28;20060;-60
2022/10/05 11:34:07;;;;;;;3.70;2.30;;;;;;;25.19;38.90;100318.19;5054562;28;20068;-60
2022/10/05 11:36:58;;;;;;;2.50;2.10;;;;;;;25.43;38.52;100324.97;5054661;28;20060;-60
2022/10/05 11:39:37;;;;;;;2.42;1.80;;;;;;;26.96;35.74;100325.69;5055612;28;20057;-61
2022/10/05 11:42:29;;;;;;;2.50;2.22;;;;;;;27.41;34.56;100302.56;5056381;28;20056;-58
2022/10/05 11:45:20;;;;;;;3.03;1.95;;;;;;;25.76;37.47;100305.47;5055245;28;20052;-60
2022/10/05 11:48:20;;;;;;;2.75;2.33;;;;;;;25.89;37.36;100282.97;5049928;28;20378;-60
2022/10/05 11:51:04;;;;;;;2.63;2.10;;;;;;;25.98;37.24;100274.72;5055953;28;20159;-60
2022/10/05 11:53:38;;;;;;;2.72;2.10;;;;;;;26.91;36.41;100272.69;5054630;28;20060;-60
2022/10/05 11:56:16;;;;;;;3.20;1.95;;;;;;;27.93;34.52;100271.38;5054965;28;20509;-60
2022/10/05 11:58:53;;;;;;;2.40;1.95;;;;;;;28.34;34.37;100261.50;5055307;28;20504;-60
2022/10/05 12:01:28;;;;;;;2.20;2.00;;;;;;;28.98;33.20;100255.59;5047993;28;20421;-60
2022/10/05 12:04:05;;;;;;;4.38;2.40;;;;;;;27.75;34.76;100247.97;5053438;28;20048;-60
2022/10/05 12:06:49;;;;;;;2.47;1.92;;;;;;;29.04;32.70;100239.47;5055328;28;20068;-60
2022/10/05 12:09:33;;;;;;;2.88;2.10;;;;;;;29.53;33.46;100235.78;5054820;28;20053;-60
2022/10/05 12:12:14;;;;;;;2.47;1.90;;;;;;;29.31;32.76;100227.72;5054433;28;20070;-58
2022/10/05 12:14:56;;;;;;;2.40;2.00;;;;;;;29.54;32.77;100212.34;5052902;28;20059;-60
2022/10/05 12:17:32;;;;;;;2.22;2.03;;;;;;;29.10;33.38;100219.69;5050517;28;20065;-60
2022/10/05 12:20:04;;;;;;;2.47;2.17;;;;;;;29.57;31.94;100209.81;5052488;28;20060;-60
2022/10/05 12:22:37;;;;;;;2.20;2.00;;;;;;;28.87;32.96;100204.25;5052016;28;20055;-60
2022/10/05 12:25:22;;;;;;;2.45;2.00;;;;;;;28.29;33.63;100206.81;5051384;28;20544;-60
2022/10/05 12:27:53;;;;;;;3.60;1.90;;;;;;;28.17;33.83;100196.03;5051885;28;20057;-60
2022/10/05 12:30:29;;;;;;;2.42;2.10;;;;;;;28.68;34.01;100193.66;5050384;28;20056;-60